createdAt,value
2018-05-12T00:00:33.735Z,53.93
2018-05-12T00:03:02.716Z,59.87
2018-05-12T00:05:31.687Z,63.37
2018-05-12T00:08:00.711Z,67.87
2018-05-12T00:10:29.735Z,70.37
2018-05-12T00:12:58.736Z,59.20
2018-05-12T00:15:27.721Z,63.33
2018-05-12T00:17:56.721Z,60.57
2018-05-12T00:20:25.701Z,56.93
2018-05-12T00:22:54.706Z,56.00
2018-05-12T00:25:23.722Z,53.80
2018-05-12T00:27:52.719Z,48.27
2018-05-12T00:30:21.682Z,55.33
2018-05-12T00:32:50.670Z,52.10
2018-05-12T00:35:19.689Z,55.30
2018-05-12T00:37:48.713Z,52.17
2018-05-12T00:40:18.740Z,54.40
2018-05-12T00:42:47.711Z,51.10
2018-05-12T00:45:16.687Z,48.70
2018-05-12T00:47:45.712Z,53.60
2018-05-12T00:50:14.678Z,74.60
2018-05-12T00:52:43.666Z,68.53
2018-05-12T00:55:12.651Z,54.63
2018-05-12T00:57:41.630Z,59.40
2018-05-12T01:00:10.647Z,63.13
2018-05-12T01:02:39.609Z,56.17
2018-05-12T01:05:08.587Z,54.67
2018-05-12T01:07:37.558Z,57.63
2018-05-12T01:10:06.567Z,61.67
2018-05-12T01:12:35.581Z,55.13
2018-05-12T01:15:04.568Z,50.80
2018-05-12T01:17:33.538Z,55.47
2018-05-12T01:20:02.518Z,55.97
2018-05-12T01:22:31.515Z,57.03
2018-05-12T01:25:00.525Z,51.43
2018-05-12T01:27:29.548Z,57.03
2018-05-12T01:29:58.528Z,54.07
2018-05-12T01:32:27.519Z,54.40
2018-05-12T01:34:56.496Z,49.93
2018-05-12T01:37:25.466Z,57.17
2018-05-12T01:39:54.439Z,58.00
2018-05-12T01:42:23.403Z,57.87
2018-05-12T01:44:52.416Z,60.00
2018-05-12T01:47:21.635Z,59.93
2018-05-12T01:49:50.609Z,63.43
2018-05-12T01:52:19.645Z,64.47
2018-05-12T01:54:48.619Z,71.10
2018-05-12T01:57:17.586Z,63.37
2018-05-12T01:59:46.554Z,59.97
2018-05-12T02:02:15.528Z,63.87
2018-05-12T02:04:44.546Z,61.80
2018-05-12T02:07:13.535Z,66.33
2018-05-12T02:09:42.503Z,64.00
2018-05-12T02:12:11.471Z,63.10
2018-05-12T02:14:40.444Z,65.87
2018-05-12T02:17:09.450Z,64.10
2018-05-12T02:19:38.461Z,65.07
2018-05-12T02:22:07.432Z,69.07
2018-05-12T02:24:36.401Z,68.13
2018-05-12T02:27:05.370Z,70.70
2018-05-12T02:29:34.374Z,71.97
2018-05-12T02:32:03.361Z,80.57
2018-05-12T02:34:32.338Z,93.47
2018-05-12T02:37:01.310Z,75.93
2018-05-12T02:39:30.292Z,69.73
2018-05-12T02:41:59.333Z,74.03
2018-05-12T02:44:28.328Z,71.60
2018-05-12T02:46:57.304Z,76.17
2018-05-12T02:49:26.285Z,76.87
2018-05-12T02:51:55.261Z,72.13
2018-05-12T02:54:24.284Z,68.00
2018-05-12T02:56:53.249Z,79.50
2018-05-12T02:59:22.238Z,89.53
2018-05-12T03:01:51.239Z,82.53
2018-05-12T03:04:20.227Z,72.37
2018-05-12T03:06:49.240Z,74.23
2018-05-12T03:09:18.231Z,79.73
2018-05-12T03:11:47.562Z,109.87
2018-05-12T03:14:16.840Z,105.63
2018-05-12T03:16:45.818Z,93.13
2018-05-12T03:19:14.862Z,79.80
2018-05-12T03:21:43.824Z,76.27
2018-05-12T03:24:12.789Z,82.47
2018-05-12T03:26:41.747Z,65.27
2018-05-12T03:29:10.706Z,57.63
2018-05-12T03:31:39.751Z,60.37
2018-05-12T03:34:08.720Z,55.67
2018-05-12T03:36:37.682Z,62.30
2018-05-12T03:39:06.661Z,87.00
2018-05-12T03:41:35.651Z,71.90
2018-05-12T03:44:04.687Z,100.07
2018-05-12T03:46:33.645Z,55.03
2018-05-12T03:49:02.621Z,68.50
2018-05-12T03:51:31.615Z,103.33
2018-05-12T03:54:00.589Z,64.73
2018-05-12T03:56:29.625Z,74.77
2018-05-12T03:58:58.606Z,74.37
2018-05-12T04:01:27.614Z,68.07
2018-05-12T04:03:56.618Z,71.07
2018-05-12T04:06:31.457Z,102.90
2018-05-12T04:09:06.377Z,60.73
2018-05-12T04:11:41.197Z,59.63
2018-05-12T04:14:10.192Z,65.30
2018-05-12T04:16:39.181Z,67.20
2018-05-12T04:19:08.198Z,57.77
2018-05-12T04:21:37.198Z,54.53
2018-05-12T04:24:06.166Z,62.73
2018-05-12T04:26:35.127Z,58.07
2018-05-12T04:29:04.105Z,58.27
2018-05-12T04:31:33.095Z,48.60
2018-05-12T04:34:02.069Z,49.30
2018-05-12T04:36:31.032Z,53.53
2018-05-12T04:38:59.987Z,52.23
2018-05-12T04:41:28.950Z,55.80
2018-05-12T04:43:57.914Z,56.27
2018-05-12T04:46:26.876Z,53.57
2018-05-12T04:48:55.889Z,51.33
2018-05-12T04:51:24.849Z,44.13
2018-05-12T04:53:53.812Z,51.27
2018-05-12T04:56:22.796Z,51.67
2018-05-12T04:58:51.770Z,39.63
2018-05-12T05:01:20.784Z,39.43
2018-05-12T05:03:49.739Z,46.73
2018-05-12T05:06:18.709Z,40.87
2018-05-12T05:08:47.683Z,41.93
2018-05-12T05:11:16.673Z,39.60
2018-05-12T05:13:45.690Z,43.13
2018-05-12T05:16:14.706Z,37.07
2018-05-12T05:18:43.652Z,46.00
2018-05-12T05:21:12.648Z,48.90
2018-05-12T05:23:41.631Z,46.10
2018-05-12T05:26:10.647Z,50.10
2018-05-12T05:28:39.612Z,48.43
2018-05-12T05:31:08.583Z,45.10
2018-05-12T05:33:37.548Z,44.17
2018-05-12T05:36:06.526Z,47.73
2018-05-12T05:38:35.540Z,41.27
2018-05-12T05:41:04.492Z,39.47
2018-05-12T05:43:33.480Z,36.60
2018-05-12T05:46:02.442Z,42.77
2018-05-12T05:48:31.399Z,38.73
2018-05-12T05:51:00.398Z,36.43
2018-05-12T05:53:29.351Z,42.33
2018-05-12T05:55:58.327Z,42.93
2018-05-12T05:58:27.369Z,48.53
2018-05-12T06:00:56.268Z,40.70
2018-05-12T06:03:25.262Z,40.63
2018-05-12T06:05:54.205Z,42.40
2018-05-12T06:08:23.161Z,41.97
2018-05-12T06:10:52.136Z,44.63
2018-05-12T06:13:21.131Z,45.27
2018-05-12T06:15:50.126Z,42.80
2018-05-12T06:18:19.072Z,44.03
2018-05-12T06:20:48.026Z,46.13
2018-05-12T06:23:16.981Z,47.47
2018-05-12T06:25:45.936Z,47.63
2018-05-12T06:28:14.946Z,49.90
2018-05-12T06:30:43.899Z,48.93
2018-05-12T06:33:12.882Z,47.40
2018-05-12T06:35:41.851Z,49.00
2018-05-12T06:38:10.813Z,51.80
2018-05-12T06:40:39.817Z,51.67
2018-05-12T06:43:08.784Z,55.90
2018-05-12T06:45:37.741Z,53.47
2018-05-12T06:48:06.757Z,52.27
2018-05-12T06:50:35.720Z,54.63
2018-05-12T06:53:04.708Z,52.03
2018-05-12T06:55:33.658Z,53.00
2018-05-12T06:58:02.674Z,52.00
2018-05-12T07:00:31.631Z,53.17
2018-05-12T07:03:00.578Z,49.23
2018-05-12T07:05:29.567Z,54.93
2018-05-12T07:07:58.546Z,52.43
2018-05-12T07:10:27.485Z,53.20
2018-05-12T07:12:56.543Z,50.17
2018-05-12T07:15:25.578Z,48.87
2018-05-12T07:17:54.589Z,52.10
2018-05-12T07:20:23.558Z,59.60
2018-05-12T07:22:52.523Z,54.97
2018-05-12T07:25:21.484Z,60.17
2018-05-12T07:27:50.452Z,56.50
2018-05-12T07:30:19.423Z,55.67
2018-05-12T07:32:48.395Z,58.27
2018-05-12T07:35:17.413Z,60.03
2018-05-12T07:37:46.362Z,59.93
2018-05-12T07:40:15.309Z,56.00
2018-05-12T07:42:44.264Z,54.00
2018-05-12T07:45:13.223Z,60.33
2018-05-12T07:47:42.186Z,56.00
2018-05-12T07:50:11.148Z,53.33
2018-05-12T07:52:40.113Z,52.20
2018-05-12T07:55:09.062Z,52.60
2018-05-12T07:57:38.018Z,48.20
2018-05-12T08:00:06.982Z,51.80
2018-05-12T08:02:35.991Z,54.00
2018-05-12T08:05:04.946Z,52.10
2018-05-12T08:07:33.939Z,54.70
2018-05-12T08:10:02.924Z,49.77
2018-05-12T08:12:31.875Z,49.83
2018-05-12T08:15:00.832Z,51.73
2018-05-12T08:17:29.777Z,48.93
2018-05-12T08:19:58.798Z,50.93
2018-05-12T08:22:27.756Z,41.33
2018-05-12T08:24:56.714Z,32.27
2018-05-12T08:27:25.662Z,28.37
2018-05-12T08:29:54.635Z,30.67
2018-05-12T08:32:23.919Z,34.07
2018-05-12T08:34:52.922Z,34.07
2018-05-12T08:37:21.937Z,31.07
2018-05-12T08:39:50.895Z,30.13
2018-05-12T08:42:19.855Z,32.20
2018-05-12T08:44:48.953Z,28.00
2018-05-12T08:47:17.897Z,27.00
2018-05-12T08:49:46.858Z,26.10
2018-05-12T08:52:15.797Z,27.33
2018-05-12T08:54:44.739Z,26.70
2018-05-12T08:57:13.693Z,26.60
2018-05-12T08:59:42.637Z,27.77
2018-05-12T09:02:11.639Z,24.03
2018-05-12T09:04:40.581Z,25.17
2018-05-12T09:07:09.602Z,26.27
2018-05-12T09:09:38.517Z,26.37
2018-05-12T09:12:07.493Z,24.00
2018-05-12T09:14:36.458Z,23.93
2018-05-12T09:17:05.404Z,25.03
2018-05-12T09:19:34.352Z,22.20
2018-05-12T09:22:03.296Z,21.57
2018-05-12T09:24:32.233Z,19.93
2018-05-12T09:27:01.200Z,21.97
2018-05-12T09:29:30.174Z,21.20
2018-05-12T09:31:59.130Z,20.37
2018-05-12T09:34:28.085Z,17.57
2018-05-12T09:36:57.031Z,20.97
2018-05-12T09:39:25.986Z,19.80
2018-05-12T09:41:54.970Z,18.67
2018-05-12T09:44:23.936Z,19.10
2018-05-12T09:46:52.868Z,19.73
2018-05-12T09:49:21.818Z,20.27
2018-05-12T09:51:50.768Z,21.20
2018-05-12T09:54:19.739Z,21.23
2018-05-12T09:56:48.687Z,19.47
2018-05-12T09:59:17.687Z,21.20
2018-05-12T10:01:46.644Z,21.83
2018-05-12T10:04:15.593Z,20.60
2018-05-12T10:06:44.563Z,19.87
2018-05-12T10:09:13.510Z,19.87
2018-05-12T10:11:42.465Z,20.57
2018-05-12T10:14:11.421Z,21.40
2018-05-12T10:16:40.410Z,22.53
2018-05-12T10:19:09.401Z,21.83
2018-05-12T10:21:38.343Z,22.20
2018-05-12T10:24:07.327Z,21.90
2018-05-12T10:26:36.276Z,21.50
2018-05-12T10:29:05.273Z,21.07
2018-05-12T10:31:34.221Z,20.83
2018-05-12T10:34:03.169Z,21.87
2018-05-12T10:36:32.106Z,21.02
2018-05-12T10:39:01.117Z,19.73
2018-05-12T10:41:30.060Z,18.15
2018-05-12T10:43:59.001Z,20.25
2018-05-12T10:46:27.994Z,21.83
2018-05-12T10:48:57.000Z,20.55
2018-05-12T10:51:25.954Z,19.50
2018-05-12T10:53:54.916Z,20.95
2018-05-12T10:56:23.873Z,19.30
2018-05-12T10:58:52.892Z,20.27
2018-05-12T11:01:21.850Z,20.10
2018-05-12T11:03:50.811Z,21.27
2018-05-12T11:06:19.825Z,21.40
2018-05-12T11:08:48.798Z,21.20
2018-05-12T11:11:17.742Z,21.63
2018-05-12T11:13:46.759Z,20.90
2018-05-12T11:16:15.750Z,23.17
2018-05-12T11:18:44.697Z,23.87
2018-05-12T11:21:13.641Z,21.73
2018-05-12T11:23:42.590Z,22.83
2018-05-12T11:26:11.616Z,19.70
2018-05-12T11:28:40.573Z,20.17
2018-05-12T11:31:09.520Z,22.03
2018-05-12T11:33:38.482Z,22.33
2018-05-12T11:36:07.886Z,22.17
2018-05-12T11:38:37.507Z,21.03
2018-05-12T11:41:06.449Z,22.23
2018-05-12T11:43:35.439Z,22.33
2018-05-12T11:46:04.386Z,19.93
2018-05-12T11:48:33.369Z,17.53
2018-05-12T11:51:02.323Z,17.93
2018-05-12T11:53:31.281Z,16.90
2018-05-12T11:56:00.311Z,16.33
2018-05-12T11:58:29.370Z,19.13
2018-05-12T12:00:58.365Z,20.00
2018-05-12T12:03:27.414Z,17.40
2018-05-12T12:05:56.389Z,19.77
2018-05-12T12:08:25.338Z,16.27
2018-05-12T12:10:54.389Z,17.00
2018-05-12T12:13:23.459Z,15.87
2018-05-12T12:15:52.643Z,17.37
2018-05-12T12:18:21.659Z,15.83
2018-05-12T12:20:50.607Z,16.07
2018-05-12T12:23:19.553Z,15.73
2018-05-12T12:25:48.505Z,19.47
2018-05-12T12:28:17.451Z,17.37
2018-05-12T12:30:46.395Z,19.50
2018-05-12T12:33:15.380Z,17.73
2018-05-12T12:35:44.369Z,18.33
2018-05-12T12:38:13.313Z,19.97
2018-05-12T12:40:42.352Z,16.13
2018-05-12T12:43:11.363Z,14.73
2018-05-12T12:45:40.322Z,16.90
2018-05-12T12:48:09.370Z,14.40
2018-05-12T12:50:38.318Z,14.48
2018-05-12T12:53:07.309Z,13.17
2018-05-12T12:55:36.263Z,15.37
2018-05-12T12:58:05.238Z,11.90
2018-05-12T13:00:34.216Z,20.97
2018-05-12T13:03:03.175Z,19.87
2018-05-12T13:05:32.179Z,25.80
2018-05-12T13:08:01.165Z,30.97
2018-05-12T13:10:30.106Z,35.60
2018-05-12T13:12:59.735Z,60.27
2018-05-12T13:15:28.685Z,37.53
2018-05-12T13:17:57.674Z,24.67
2018-05-12T13:20:26.640Z,40.97
2018-05-12T13:22:55.601Z,68.57
2018-05-12T13:25:24.562Z,100.37
2018-05-12T13:27:53.640Z,192.53
2018-05-12T13:30:22.671Z,163.90
2018-05-12T13:32:52.311Z,259.40
2018-05-12T13:35:21.266Z,82.23
2018-05-12T13:37:50.858Z,150.47
2018-05-12T13:40:19.929Z,170.73
2018-05-12T13:42:48.894Z,127.83
2018-05-12T13:45:17.897Z,118.53
2018-05-12T13:47:46.850Z,66.40
2018-05-12T13:50:15.823Z,136.43
2018-05-12T13:52:45.372Z,107.50
2018-05-12T13:55:14.355Z,124.33
2018-05-12T13:57:43.342Z,73.93
2018-05-12T14:00:12.281Z,64.77
2018-05-12T14:02:41.227Z,56.83
2018-05-12T14:05:10.308Z,66.87
2018-05-12T14:07:39.249Z,85.17
2018-05-12T14:10:08.310Z,54.10
2018-05-12T14:12:37.302Z,53.50
2018-05-12T14:15:06.247Z,75.23
2018-05-12T14:17:35.185Z,58.40
2018-05-12T14:20:04.125Z,65.47
2018-05-12T14:22:33.113Z,50.40
2018-05-12T14:25:02.103Z,53.10
2018-05-12T14:27:31.090Z,47.13
2018-05-12T14:30:00.044Z,34.67
2018-05-12T14:32:29.089Z,39.13
2018-05-12T14:34:58.047Z,32.07
2018-05-12T14:37:27.634Z,66.57
2018-05-12T14:39:56.627Z,60.33
2018-05-12T14:42:25.579Z,61.67
2018-05-12T14:44:54.538Z,77.73
2018-05-12T14:47:23.506Z,46.17
2018-05-12T14:49:52.478Z,61.20
2018-05-12T14:52:21.580Z,45.80
2018-05-12T14:54:50.564Z,60.37
2018-05-12T14:57:20.066Z,53.27
2018-05-12T14:59:49.032Z,55.50
2018-05-12T15:02:17.972Z,57.43
2018-05-12T15:04:46.992Z,37.60
2018-05-12T15:07:15.939Z,46.50
2018-05-12T15:09:44.880Z,51.80
2018-05-12T15:12:13.833Z,45.07
2018-05-12T15:14:42.786Z,48.70
2018-05-12T15:17:11.770Z,39.87
2018-05-12T15:19:40.726Z,51.27
2018-05-12T15:22:09.670Z,44.43
2018-05-12T15:24:38.626Z,51.33
2018-05-12T15:27:07.561Z,51.07
2018-05-12T15:29:36.579Z,52.00
2018-05-12T15:32:05.527Z,55.60
2018-05-12T15:34:34.533Z,47.70
2018-05-12T15:37:03.538Z,51.60
2018-05-12T15:39:32.505Z,40.90
2018-05-12T15:42:01.776Z,28.53
2018-05-12T15:44:30.841Z,16.50
2018-05-12T15:47:00.365Z,17.83
2018-05-12T15:49:29.305Z,16.50
2018-05-12T15:51:59.053Z,17.00
2018-05-12T15:54:28.006Z,15.83
2018-05-12T15:56:57.446Z,16.63
2018-05-12T15:59:26.441Z,17.53
2018-05-12T16:01:56.271Z,17.43
2018-05-12T16:04:25.232Z,18.37
2018-05-12T16:06:54.179Z,21.03
2018-05-12T16:09:23.117Z,17.67
2018-05-12T16:11:52.090Z,17.63
2018-05-12T16:14:21.024Z,19.53
2018-05-12T16:16:50.211Z,15.27
2018-05-12T16:19:19.163Z,14.03
2018-05-12T16:21:48.162Z,11.93
2018-05-12T16:24:17.237Z,12.17
2018-05-12T16:26:46.652Z,12.30
2018-05-12T16:29:15.595Z,9.43
2018-05-12T16:31:44.548Z,10.13
2018-05-12T16:34:13.498Z,9.83
2018-05-12T16:36:42.539Z,9.57
2018-05-12T16:39:11.487Z,10.67
2018-05-12T16:41:40.421Z,10.00
2018-05-12T16:44:09.379Z,8.63
2018-05-12T16:46:38.322Z,10.03
2018-05-12T16:49:07.446Z,12.20
2018-05-12T16:51:36.433Z,14.00
2018-05-12T16:54:05.379Z,11.67
2018-05-12T16:56:34.433Z,16.83
2018-05-12T16:59:03.452Z,16.50
2018-05-12T17:01:32.467Z,13.23
2018-05-12T17:04:01.461Z,16.60
2018-05-12T17:06:30.430Z,16.10
2018-05-12T17:08:59.367Z,17.27
2018-05-12T17:11:28.317Z,19.90
2018-05-12T17:13:57.297Z,20.13
2018-05-12T17:16:26.237Z,20.70
2018-05-12T17:18:55.196Z,21.80
2018-05-12T17:21:24.173Z,24.37
2018-05-12T17:23:53.199Z,20.97
2018-05-12T17:26:22.281Z,17.87
2018-05-12T17:28:51.885Z,17.93
2018-05-12T17:31:20.850Z,18.03
2018-05-12T17:33:49.790Z,23.93
2018-05-12T17:36:18.753Z,34.50
2018-05-12T17:38:47.757Z,41.47
2018-05-12T17:41:16.749Z,38.17
2018-05-12T17:43:45.813Z,38.93
2018-05-12T17:46:14.878Z,38.33
2018-05-12T17:48:43.889Z,36.60
2018-05-12T17:51:12.878Z,38.37
2018-05-12T17:53:41.974Z,39.60
2018-05-12T17:56:10.978Z,35.17
2018-05-12T17:58:39.959Z,40.13
2018-05-12T18:01:09.671Z,44.33
2018-05-12T18:03:39.299Z,62.53
2018-05-12T18:06:08.272Z,68.80
2018-05-12T18:08:37.228Z,93.33
2018-05-12T18:11:06.187Z,81.37
2018-05-12T18:13:35.342Z,89.13
2018-05-12T18:16:04.377Z,53.57
2018-05-12T18:18:33.346Z,57.27
2018-05-12T18:21:02.381Z,63.57
2018-05-12T18:23:31.345Z,145.00
2018-05-12T18:26:00.372Z,143.60
2018-05-12T18:28:29.357Z,81.87
2018-05-12T18:30:58.366Z,67.23
2018-05-12T18:33:27.314Z,63.73
2018-05-12T18:35:56.361Z,51.60
2018-05-12T18:38:25.317Z,43.57
2018-05-12T18:40:54.260Z,36.30
2018-05-12T18:43:23.537Z,37.63
2018-05-12T18:45:52.541Z,41.10
2018-05-12T18:48:22.164Z,45.53
2018-05-12T18:50:51.266Z,51.07
2018-05-12T18:53:20.217Z,48.37
2018-05-12T18:55:49.179Z,45.20
2018-05-12T18:58:18.330Z,44.07
2018-05-12T19:00:47.341Z,49.53
2018-05-12T19:03:16.306Z,50.10
2018-05-12T19:05:45.368Z,49.17
2018-05-12T19:08:14.393Z,55.73
2018-05-12T19:10:43.382Z,62.67
2018-05-12T19:13:12.351Z,56.37
2018-05-12T19:15:41.295Z,51.77
2018-05-12T19:18:10.255Z,64.50
2018-05-12T19:20:39.205Z,70.77
2018-05-12T19:23:08.258Z,59.60
2018-05-12T19:25:37.214Z,62.57
2018-05-12T19:28:06.234Z,55.43
2018-05-12T19:30:35.176Z,60.50
2018-05-12T19:33:04.375Z,73.03
2018-05-12T19:35:33.377Z,71.57
2018-05-12T19:38:02.339Z,78.77
2018-05-12T19:40:31.286Z,79.00
2018-05-12T19:43:00.754Z,83.77
2018-05-12T19:45:29.693Z,79.83
2018-05-12T19:47:58.673Z,73.87
2018-05-12T19:50:27.627Z,62.53
2018-05-12T19:52:57.477Z,71.47
2018-05-12T19:55:26.900Z,62.37
2018-05-12T19:57:55.866Z,60.77
2018-05-12T20:00:24.882Z,52.90
2018-05-12T20:02:53.843Z,72.20
2018-05-12T20:05:22.787Z,69.57
2018-05-12T20:07:51.747Z,65.90
2018-05-12T20:10:20.720Z,73.33
2018-05-12T20:12:49.708Z,69.70
2018-05-12T20:15:19.274Z,73.40
2018-05-12T20:17:48.233Z,68.57
2018-05-12T20:20:17.179Z,59.80
2018-05-12T20:22:46.158Z,68.97
2018-05-12T20:25:15.787Z,75.80
2018-05-12T20:27:44.840Z,76.00
2018-05-12T20:30:13.789Z,71.20
2018-05-12T20:32:42.741Z,71.17
2018-05-12T20:35:11.690Z,68.13
2018-05-12T20:37:40.681Z,76.80
2018-05-12T20:40:09.705Z,63.13
2018-05-12T20:42:38.683Z,67.17
2018-05-12T20:45:07.624Z,73.30
2018-05-12T20:47:36.573Z,64.67
2018-05-12T20:50:05.574Z,60.63
2018-05-12T20:52:34.667Z,61.53
2018-05-12T20:55:03.665Z,59.93
2018-05-12T20:57:32.615Z,54.93
2018-05-12T21:00:01.564Z,58.97
2018-05-12T21:02:30.570Z,50.93
2018-05-12T21:04:59.526Z,52.83
2018-05-12T21:07:28.481Z,53.47
2018-05-12T21:09:57.439Z,54.67
2018-05-12T21:12:27.079Z,53.70
2018-05-12T21:14:56.061Z,49.40
2018-05-12T21:17:25.015Z,48.53
2018-05-12T21:19:53.995Z,43.03
2018-05-12T21:22:22.959Z,35.33
2018-05-12T21:24:51.906Z,29.53
2018-05-12T21:27:20.885Z,33.47
2018-05-12T21:29:49.844Z,28.97
2018-05-12T21:32:18.799Z,25.20
2018-05-12T21:34:47.737Z,23.20
2018-05-12T21:37:16.699Z,24.50
2018-05-12T21:39:45.755Z,23.83
2018-05-12T21:42:14.711Z,20.53
2018-05-12T21:44:43.781Z,17.93
2018-05-12T21:47:12.757Z,19.10
2018-05-12T21:49:41.698Z,19.07
2018-05-12T21:52:10.690Z,17.13
2018-05-12T21:54:39.733Z,20.33
2018-05-12T21:57:08.689Z,15.50
2018-05-12T21:59:37.650Z,16.53
2018-05-12T22:02:06.593Z,17.30
2018-05-12T22:04:35.593Z,12.77
2018-05-12T22:07:04.556Z,18.70
2018-05-12T22:09:33.517Z,15.03
2018-05-12T22:12:02.462Z,16.27
2018-05-12T22:14:31.742Z,14.13
2018-05-12T22:17:00.739Z,13.13
2018-05-12T22:19:29.708Z,14.47
2018-05-12T22:21:58.671Z,13.37
2018-05-12T22:24:27.626Z,15.13
2018-05-12T22:26:56.577Z,16.60
2018-05-12T22:29:25.563Z,12.07
2018-05-12T22:31:54.524Z,15.10
2018-05-12T22:34:23.473Z,11.70
2018-05-12T22:36:53.063Z,12.23
2018-05-12T22:39:22.000Z,11.83
2018-05-12T22:41:50.986Z,13.07
2018-05-12T22:44:20.536Z,15.60
2018-05-12T22:46:49.478Z,13.63
2018-05-12T22:49:19.217Z,12.47
2018-05-12T22:51:48.163Z,11.37
2018-05-12T22:54:17.218Z,15.23
2018-05-12T22:56:46.392Z,12.20
2018-05-12T22:59:16.150Z,11.60
2018-05-12T23:01:45.115Z,10.30
2018-05-12T23:04:14.066Z,10.90
2018-05-12T23:06:43.050Z,10.47
2018-05-12T23:09:11.998Z,13.60
2018-05-12T23:11:41.476Z,9.83
2018-05-12T23:14:10.438Z,11.10
2018-05-12T23:16:39.410Z,10.47
2018-05-12T23:19:08.426Z,11.87
2018-05-12T23:21:37.401Z,11.67
2018-05-12T23:24:06.370Z,8.27
2018-05-12T23:29:10.853Z,10.73
2018-05-12T23:31:39.848Z,10.73
2018-05-12T23:34:08.799Z,10.10
2018-05-12T23:36:37.779Z,10.07
2018-05-12T23:39:06.740Z,7.30
2018-05-12T23:41:35.700Z,7.53
2018-05-12T23:44:04.699Z,10.57
2018-05-12T23:46:33.759Z,11.30
2018-05-12T23:49:02.667Z,9.07
2018-05-12T23:51:31.681Z,9.53
2018-05-12T23:54:00.610Z,11.50
2018-05-12T23:56:29.604Z,9.43
2018-05-12T23:58:58.561Z,8.43
